sensor_id;sensor_type;location;lat;lon;timestamp;P1;durP1;ratioP1;P2;durP2;ratioP2
19731;SDS011;10017;54.350;18.532;2022-07-22T00:02:22;20.00;;;14.60;;
19731;SDS011;10017;54.350;18.532;2022-07-22T00:04:54;19.98;;;14.82;;
19731;SDS011;10017;54.350;18.532;2022-07-22T00:07:27;20.83;;;14.40;;
19731;SDS011;10017;54.350;18.532;2022-07-22T00:10:02;18.40;;;13.45;;
19731;SDS011;10017;54.350;18.532;2022-07-22T00:12:34;19.48;;;14.35;;
19731;SDS011;10017;54.350;18.532;2022-07-22T00:15:09;17.40;;;13.65;;
19731;SDS011;10017;54.350;18.532;2022-07-22T00:17:45;18.95;;;14.50;;
19731;SDS011;10017;54.350;18.532;2022-07-22T00:20:17;16.15;;;13.63;;
19731;SDS011;10017;54.350;18.532;2022-07-22T00:22:50;18.05;;;14.35;;
19731;SDS011;10017;54.350;18.532;2022-07-22T00:25:24;17.92;;;14.10;;
19731;SDS011;10017;54.350;18.532;2022-07-22T00:27:56;18.27;;;14.20;;
19731;SDS011;10017;54.350;18.532;2022-07-22T00:30:28;21.02;;;14.90;;
19731;SDS011;10017;54.350;18.532;2022-07-22T00:33:03;18.25;;;14.32;;
19731;SDS011;10017;54.350;18.532;2022-07-22T00:35:35;18.13;;;14.63;;
19731;SDS011;10017;54.350;18.532;2022-07-22T00:38:13;18.40;;;13.98;;
19731;SDS011;10017;54.350;18.532;2022-07-22T00:40:45;17.50;;;14.43;;
19731;SDS011;10017;54.350;18.532;2022-07-22T00:43:17;19.10;;;13.98;;
19731;SDS011;10017;54.350;18.532;2022-07-22T00:45:50;16.35;;;13.30;;
19731;SDS011;10017;54.350;18.532;2022-07-22T00:48:22;18.98;;;14.15;;
19731;SDS011;10017;54.350;18.532;2022-07-22T00:50:54;20.80;;;15.48;;
19731;SDS011;10017;54.350;18.532;2022-07-22T00:53:25;22.15;;;14.60;;
19731;SDS011;10017;54.350;18.532;2022-07-22T00:55:58;19.90;;;13.80;;
19731;SDS011;10017;54.350;18.532;2022-07-22T00:58:30;20.40;;;15.38;;
19731;SDS011;10017;54.350;18.532;2022-07-22T01:01:03;20.33;;;14.70;;
19731;SDS011;10017;54.350;18.532;2022-07-22T01:03:35;21.45;;;15.45;;
19731;SDS011;10017;54.350;18.532;2022-07-22T01:06:10;22.48;;;16.42;;
19731;SDS011;10017;54.350;18.532;2022-07-22T01:08:45;22.90;;;15.75;;
19731;SDS011;10017;54.350;18.532;2022-07-22T01:11:18;21.02;;;15.70;;
19731;SDS011;10017;54.350;18.532;2022-07-22T01:13:51;21.48;;;16.05;;
19731;SDS011;10017;54.350;18.532;2022-07-22T01:16:24;21.48;;;15.45;;
19731;SDS011;10017;54.350;18.532;2022-07-22T01:18:56;21.60;;;16.98;;
19731;SDS011;10017;54.350;18.532;2022-07-22T01:21:31;24.23;;;16.55;;
19731;SDS011;10017;54.350;18.532;2022-07-22T01:24:04;22.88;;;16.30;;
19731;SDS011;10017;54.350;18.532;2022-07-22T01:26:39;20.10;;;15.52;;
19731;SDS011;10017;54.350;18.532;2022-07-22T01:29:10;19.60;;;15.27;;
19731;SDS011;10017;54.350;18.532;2022-07-22T01:31:42;23.40;;;16.33;;
19731;SDS011;10017;54.350;18.532;2022-07-22T01:34:14;20.92;;;15.43;;
19731;SDS011;10017;54.350;18.532;2022-07-22T01:36:46;24.27;;;15.85;;
19731;SDS011;10017;54.350;18.532;2022-07-22T01:39:18;21.05;;;15.45;;
19731;SDS011;10017;54.350;18.532;2022-07-22T01:41:50;23.08;;;15.30;;
19731;SDS011;10017;54.350;18.532;2022-07-22T01:44:27;18.55;;;15.45;;
19731;SDS011;10017;54.350;18.532;2022-07-22T01:47:02;19.08;;;14.23;;
19731;SDS011;10017;54.350;18.532;2022-07-22T01:49:34;22.63;;;15.15;;
19731;SDS011;10017;54.350;18.532;2022-07-22T01:52:08;19.25;;;14.73;;
19731;SDS011;10017;54.350;18.532;2022-07-22T01:54:40;17.38;;;13.52;;
19731;SDS011;10017;54.350;18.532;2022-07-22T01:57:12;20.83;;;14.50;;
19731;SDS011;10017;54.350;18.532;2022-07-22T01:59:44;23.65;;;14.93;;
19731;SDS011;10017;54.350;18.532;2022-07-22T02:02:16;19.05;;;14.27;;
19731;SDS011;10017;54.350;18.532;2022-07-22T02:04:48;17.80;;;13.55;;
19731;SDS011;10017;54.350;18.532;2022-07-22T02:07:22;16.83;;;13.40;;
19731;SDS011;10017;54.350;18.532;2022-07-22T02:09:57;18.50;;;13.50;;
19731;SDS011;10017;54.350;18.532;2022-07-22T02:12:28;17.08;;;12.88;;
19731;SDS011;10017;54.350;18.532;2022-07-22T02:15:01;18.52;;;13.48;;
19731;SDS011;10017;54.350;18.532;2022-07-22T02:17:34;16.92;;;13.07;;
19731;SDS011;10017;54.350;18.532;2022-07-22T02:20:07;16.60;;;13.38;;
19731;SDS011;10017;54.350;18.532;2022-07-22T02:22:42;19.05;;;13.50;;
19731;SDS011;10017;54.350;18.532;2022-07-22T02:25:14;18.00;;;13.18;;
19731;SDS011;10017;54.350;18.532;2022-07-22T02:27:46;18.20;;;13.35;;
19731;SDS011;10017;54.350;18.532;2022-07-22T02:30:18;19.77;;;13.15;;
19731;SDS011;10017;54.350;18.532;2022-07-22T02:32:50;17.48;;;12.52;;
19731;SDS011;10017;54.350;18.532;2022-07-22T02:35:22;15.02;;;12.25;;
19731;SDS011;10017;54.350;18.532;2022-07-22T02:37:59;15.57;;;12.88;;
19731;SDS011;10017;54.350;18.532;2022-07-22T02:40:32;15.07;;;12.50;;
19731;SDS011;10017;54.350;18.532;2022-07-22T02:43:07;13.20;;;11.48;;
19731;SDS011;10017;54.350;18.532;2022-07-22T02:45:39;16.15;;;13.50;;
19731;SDS011;10017;54.350;18.532;2022-07-22T02:48:13;20.83;;;13.90;;
19731;SDS011;10017;54.350;18.532;2022-07-22T02:50:47;16.88;;;13.75;;
19731;SDS011;10017;54.350;18.532;2022-07-22T02:53:22;15.75;;;13.02;;
19731;SDS011;10017;54.350;18.532;2022-07-22T02:55:54;17.50;;;13.70;;
19731;SDS011;10017;54.350;18.532;2022-07-22T02:58:27;19.20;;;14.48;;
19731;SDS011;10017;54.350;18.532;2022-07-22T03:00:59;18.58;;;14.55;;
19731;SDS011;10017;54.350;18.532;2022-07-22T03:03:31;22.65;;;15.15;;
19731;SDS011;10017;54.350;18.532;2022-07-22T03:06:04;20.40;;;15.18;;
19731;SDS011;10017;54.350;18.532;2022-07-22T03:08:38;17.38;;;13.63;;
19731;SDS011;10017;54.350;18.532;2022-07-22T03:11:10;15.18;;;12.82;;
19731;SDS011;10017;54.350;18.532;2022-07-22T03:13:42;17.80;;;15.05;;
19731;SDS011;10017;54.350;18.532;2022-07-22T03:16:14;20.33;;;15.23;;
19731;SDS011;10017;54.350;18.532;2022-07-22T03:18:47;20.90;;;14.32;;
19731;SDS011;10017;54.350;18.532;2022-07-22T03:21:19;17.95;;;14.30;;
19731;SDS011;10017;54.350;18.532;2022-07-22T03:23:54;19.55;;;14.55;;
19731;SDS011;10017;54.350;18.532;2022-07-22T03:26:26;17.92;;;14.20;;
19731;SDS011;10017;54.350;18.532;2022-07-22T03:28:58;19.33;;;14.50;;
19731;SDS011;10017;54.350;18.532;2022-07-22T03:31:30;18.95;;;14.38;;
19731;SDS011;10017;54.350;18.532;2022-07-22T03:34:02;24.35;;;16.05;;
19731;SDS011;10017;54.350;18.532;2022-07-22T03:36:35;23.27;;;16.52;;
19731;SDS011;10017;54.350;18.532;2022-07-22T03:39:09;23.02;;;15.88;;
19731;SDS011;10017;54.350;18.532;2022-07-22T03:41:41;20.25;;;15.85;;
19731;SDS011;10017;54.350;18.532;2022-07-22T03:44:14;20.70;;;16.90;;
19731;SDS011;10017;54.350;18.532;2022-07-22T03:46:45;23.80;;;17.52;;
19731;SDS011;10017;54.350;18.532;2022-07-22T03:49:18;23.15;;;18.13;;
19731;SDS011;10017;54.350;18.532;2022-07-22T03:51:50;25.40;;;18.02;;
19731;SDS011;10017;54.350;18.532;2022-07-22T03:54:23;21.55;;;17.50;;
19731;SDS011;10017;54.350;18.532;2022-07-22T03:56:55;24.27;;;18.20;;
19731;SDS011;10017;54.350;18.532;2022-07-22T03:59:27;28.02;;;19.58;;
19731;SDS011;10017;54.350;18.532;2022-07-22T04:02:02;21.35;;;16.88;;
19731;SDS011;10017;54.350;18.532;2022-07-22T04:04:34;23.35;;;17.17;;
19731;SDS011;10017;54.350;18.532;2022-07-22T04:07:10;21.55;;;15.32;;
19731;SDS011;10017;54.350;18.532;2022-07-22T04:09:44;19.30;;;14.90;;
19731;SDS011;10017;54.350;18.532;2022-07-22T04:12:16;19.15;;;15.57;;
19731;SDS011;10017;54.350;18.532;2022-07-22T04:14:50;21.55;;;16.52;;
19731;SDS011;10017;54.350;18.532;2022-07-22T04:17:22;22.77;;;16.83;;
19731;SDS011;10017;54.350;18.532;2022-07-22T04:19:55;21.02;;;14.38;;
19731;SDS011;10017;54.350;18.532;2022-07-22T04:22:27;16.88;;;14.82;;
19731;SDS011;10017;54.350;18.532;2022-07-22T04:24:59;21.90;;;17.23;;
19731;SDS011;10017;54.350;18.532;2022-07-22T04:27:31;23.35;;;18.05;;
19731;SDS011;10017;54.350;18.532;2022-07-22T04:30:04;28.25;;;17.17;;
19731;SDS011;10017;54.350;18.532;2022-07-22T04:32:41;20.55;;;16.15;;
19731;SDS011;10017;54.350;18.532;2022-07-22T04:35:14;20.80;;;16.73;;
19731;SDS011;10017;54.350;18.532;2022-07-22T04:37:46;19.17;;;14.45;;
19731;SDS011;10017;54.350;18.532;2022-07-22T04:40:18;17.70;;;14.00;;
19731;SDS011;10017;54.350;18.532;2022-07-22T04:42:51;18.08;;;14.90;;
19731;SDS011;10017;54.350;18.532;2022-07-22T04:45:23;19.38;;;14.13;;
19731;SDS011;10017;54.350;18.532;2022-07-22T04:47:54;20.63;;;16.00;;
19731;SDS011;10017;54.350;18.532;2022-07-22T04:50:29;18.02;;;14.13;;
19731;SDS011;10017;54.350;18.532;2022-07-22T04:53:01;16.10;;;13.15;;
19731;SDS011;10017;54.350;18.532;2022-07-22T04:55:35;23.67;;;14.68;;
19731;SDS011;10017;54.350;18.532;2022-07-22T04:58:07;18.02;;;13.02;;
19731;SDS011;10017;54.350;18.532;2022-07-22T05:00:47;14.85;;;12.13;;
19731;SDS011;10017;54.350;18.532;2022-07-22T05:03:19;17.17;;;13.93;;
19731;SDS011;10017;54.350;18.532;2022-07-22T05:05:51;15.15;;;12.70;;
19731;SDS011;10017;54.350;18.532;2022-07-22T05:08:23;21.73;;;13.80;;
19731;SDS011;10017;54.350;18.532;2022-07-22T05:10:55;18.20;;;12.43;;
19731;SDS011;10017;54.350;18.532;2022-07-22T05:13:27;21.10;;;14.63;;
19731;SDS011;10017;54.350;18.532;2022-07-22T05:16:05;16.77;;;13.70;;
19731;SDS011;10017;54.350;18.532;2022-07-22T05:18:38;15.95;;;13.25;;
19731;SDS011;10017;54.350;18.532;2022-07-22T05:21:11;20.98;;;14.18;;
19731;SDS011;10017;54.350;18.532;2022-07-22T05:23:43;15.63;;;12.50;;
19731;SDS011;10017;54.350;18.532;2022-07-22T05:26:17;13.23;;;11.82;;
19731;SDS011;10017;54.350;18.532;2022-07-22T05:28:51;16.92;;;12.10;;
19731;SDS011;10017;54.350;18.532;2022-07-22T05:31:24;18.77;;;14.35;;
19731;SDS011;10017;54.350;18.532;2022-07-22T05:33:56;18.90;;;13.85;;
19731;SDS011;10017;54.350;18.532;2022-07-22T05:36:31;15.60;;;13.30;;
19731;SDS011;10017;54.350;18.532;2022-07-22T05:39:06;15.73;;;12.80;;
19731;SDS011;10017;54.350;18.532;2022-07-22T05:41:38;19.55;;;15.38;;
19731;SDS011;10017;54.350;18.532;2022-07-22T05:44:11;18.05;;;13.82;;
19731;SDS011;10017;54.350;18.532;2022-07-22T05:46:43;24.02;;;15.80;;
19731;SDS011;10017;54.350;18.532;2022-07-22T05:49:16;21.48;;;15.50;;
19731;SDS011;10017;54.350;18.532;2022-07-22T05:51:51;23.88;;;15.73;;
19731;SDS011;10017;54.350;18.532;2022-07-22T05:54:22;25.85;;;17.17;;
19731;SDS011;10017;54.350;18.532;2022-07-22T05:56:56;27.13;;;17.23;;
19731;SDS011;10017;54.350;18.532;2022-07-22T05:59:29;30.70;;;18.17;;
19731;SDS011;10017;54.350;18.532;2022-07-22T06:02:02;23.98;;;17.77;;
19731;SDS011;10017;54.350;18.532;2022-07-22T06:04:37;30.10;;;16.42;;
19731;SDS011;10017;54.350;18.532;2022-07-22T06:07:10;28.33;;;16.95;;
19731;SDS011;10017;54.350;18.532;2022-07-22T06:09:42;26.60;;;17.70;;
19731;SDS011;10017;54.350;18.532;2022-07-22T06:12:14;30.77;;;17.40;;
19731;SDS011;10017;54.350;18.532;2022-07-22T06:14:46;23.90;;;18.55;;
19731;SDS011;10017;54.350;18.532;2022-07-22T06:17:18;24.02;;;17.20;;
19731;SDS011;10017;54.350;18.532;2022-07-22T06:19:50;26.42;;;18.00;;
19731;SDS011;10017;54.350;18.532;2022-07-22T06:22:23;36.17;;;19.40;;
19731;SDS011;10017;54.350;18.532;2022-07-22T06:24:54;26.55;;;17.77;;
19731;SDS011;10017;54.350;18.532;2022-07-22T06:27:47;30.45;;;19.80;;
19731;SDS011;10017;54.350;18.532;2022-07-22T06:30:21;30.77;;;20.65;;
19731;SDS011;10017;54.350;18.532;2022-07-22T06:32:53;32.38;;;22.75;;
19731;SDS011;10017;54.350;18.532;2022-07-22T06:35:26;35.70;;;22.83;;
19731;SDS011;10017;54.350;18.532;2022-07-22T06:38:04;41.72;;;24.35;;
19731;SDS011;10017;54.350;18.532;2022-07-22T06:40:37;29.83;;;21.38;;
19731;SDS011;10017;54.350;18.532;2022-07-22T06:43:09;33.45;;;23.38;;
19731;SDS011;10017;54.350;18.532;2022-07-22T06:45:44;33.00;;;23.45;;
19731;SDS011;10017;54.350;18.532;2022-07-22T06:48:16;36.63;;;24.02;;
19731;SDS011;10017;54.350;18.532;2022-07-22T06:50:48;35.80;;;23.23;;
19731;SDS011;10017;54.350;18.532;2022-07-22T06:53:24;29.23;;;20.55;;
19731;SDS011;10017;54.350;18.532;2022-07-22T06:55:58;28.73;;;20.98;;
19731;SDS011;10017;54.350;18.532;2022-07-22T06:58:37;27.55;;;19.40;;
19731;SDS011;10017;54.350;18.532;2022-07-22T07:01:11;30.80;;;21.90;;
19731;SDS011;10017;54.350;18.532;2022-07-22T07:03:43;27.92;;;20.92;;
19731;SDS011;10017;54.350;18.532;2022-07-22T07:06:18;26.02;;;19.70;;
19731;SDS011;10017;54.350;18.532;2022-07-22T07:08:52;28.88;;;22.35;;
19731;SDS011;10017;54.350;18.532;2022-07-22T07:11:27;25.52;;;19.58;;
19731;SDS011;10017;54.350;18.532;2022-07-22T07:13:59;25.58;;;17.40;;
19731;SDS011;10017;54.350;18.532;2022-07-22T07:16:30;28.60;;;20.33;;
19731;SDS011;10017;54.350;18.532;2022-07-22T07:19:02;32.05;;;22.10;;
19731;SDS011;10017;54.350;18.532;2022-07-22T07:21:35;28.98;;;22.77;;
19731;SDS011;10017;54.350;18.532;2022-07-22T07:24:07;30.85;;;23.38;;
19731;SDS011;10017;54.350;18.532;2022-07-22T07:26:39;29.75;;;21.45;;
19731;SDS011;10017;54.350;18.532;2022-07-22T07:29:11;27.95;;;22.65;;
19731;SDS011;10017;54.350;18.532;2022-07-22T07:31:44;28.33;;;24.02;;
19731;SDS011;10017;54.350;18.532;2022-07-22T07:34:16;26.92;;;20.92;;
19731;SDS011;10017;54.350;18.532;2022-07-22T07:36:48;28.05;;;21.42;;
19731;SDS011;10017;54.350;18.532;2022-07-22T07:39:23;30.80;;;23.38;;
19731;SDS011;10017;54.350;18.532;2022-07-22T07:41:55;28.67;;;21.38;;
19731;SDS011;10017;54.350;18.532;2022-07-22T07:44:27;30.38;;;21.25;;
19731;SDS011;10017;54.350;18.532;2022-07-22T07:46:59;27.80;;;21.48;;
19731;SDS011;10017;54.350;18.532;2022-07-22T07:49:31;27.73;;;21.70;;
19731;SDS011;10017;54.350;18.532;2022-07-22T07:52:02;30.95;;;22.58;;
19731;SDS011;10017;54.350;18.532;2022-07-22T07:54:35;31.35;;;23.05;;
19731;SDS011;10017;54.350;18.532;2022-07-22T07:57:27;24.58;;;18.67;;
19731;SDS011;10017;54.350;18.532;2022-07-22T08:00:03;25.10;;;20.95;;
19731;SDS011;10017;54.350;18.532;2022-07-22T08:02:42;25.58;;;19.73;;
19731;SDS011;10017;54.350;18.532;2022-07-22T08:05:17;22.27;;;17.95;;
19731;SDS011;10017;54.350;18.532;2022-07-22T08:07:51;22.85;;;16.90;;
19731;SDS011;10017;54.350;18.532;2022-07-22T08:10:24;23.65;;;19.08;;
19731;SDS011;10017;54.350;18.532;2022-07-22T08:13:19;22.80;;;16.98;;
19731;SDS011;10017;54.350;18.532;2022-07-22T08:15:51;21.00;;;16.70;;
19731;SDS011;10017;54.350;18.532;2022-07-22T08:18:23;24.48;;;17.63;;
19731;SDS011;10017;54.350;18.532;2022-07-22T08:20:58;20.67;;;15.93;;
19731;SDS011;10017;54.350;18.532;2022-07-22T08:23:35;22.63;;;19.10;;
19731;SDS011;10017;54.350;18.532;2022-07-22T08:26:07;23.73;;;19.20;;
19731;SDS011;10017;54.350;18.532;2022-07-22T08:28:39;22.73;;;18.25;;
19731;SDS011;10017;54.350;18.532;2022-07-22T08:31:11;23.40;;;19.40;;
19731;SDS011;10017;54.350;18.532;2022-07-22T08:33:43;23.48;;;17.75;;
19731;SDS011;10017;54.350;18.532;2022-07-22T08:36:15;21.35;;;16.73;;
19731;SDS011;10017;54.350;18.532;2022-07-22T08:38:47;23.00;;;16.08;;
19731;SDS011;10017;54.350;18.532;2022-07-22T08:41:19;16.52;;;14.82;;
19731;SDS011;10017;54.350;18.532;2022-07-22T08:43:55;16.40;;;13.90;;
19731;SDS011;10017;54.350;18.532;2022-07-22T08:46:28;15.13;;;13.32;;
19731;SDS011;10017;54.350;18.532;2022-07-22T08:49:01;14.40;;;12.48;;
19731;SDS011;10017;54.350;18.532;2022-07-22T08:51:40;14.32;;;12.18;;
19731;SDS011;10017;54.350;18.532;2022-07-22T08:54:18;16.52;;;11.82;;
19731;SDS011;10017;54.350;18.532;2022-07-22T08:56:52;11.50;;;9.90;;
19731;SDS011;10017;54.350;18.532;2022-07-22T08:59:24;12.57;;;9.98;;
19731;SDS011;10017;54.350;18.532;2022-07-22T09:04:56;14.40;;;10.77;;
19731;SDS011;10017;54.350;18.532;2022-07-22T09:07:50;11.27;;;9.88;;
19731;SDS011;10017;54.350;18.532;2022-07-22T09:10:32;12.93;;;9.52;;
19731;SDS011;10017;54.350;18.532;2022-07-22T09:13:09;13.85;;;10.40;;
19731;SDS011;10017;54.350;18.532;2022-07-22T09:15:46;12.35;;;9.98;;
19731;SDS011;10017;54.350;18.532;2022-07-22T09:18:22;14.75;;;10.73;;
19731;SDS011;10017;54.350;18.532;2022-07-22T09:21:00;14.02;;;10.43;;
19731;SDS011;10017;54.350;18.532;2022-07-22T09:23:38;11.70;;;10.10;;
19731;SDS011;10017;54.350;18.532;2022-07-22T09:26:29;12.27;;;10.98;;
19731;SDS011;10017;54.350;18.532;2022-07-22T09:29:09;13.77;;;12.32;;
19731;SDS011;10017;54.350;18.532;2022-07-22T09:31:49;11.77;;;10.57;;
19731;SDS011;10017;54.350;18.532;2022-07-22T09:34:30;14.88;;;11.35;;
19731;SDS011;10017;54.350;18.532;2022-07-22T09:37:05;12.68;;;11.32;;
19731;SDS011;10017;54.350;18.532;2022-07-22T09:39:37;14.95;;;12.13;;
19731;SDS011;10017;54.350;18.532;2022-07-22T09:42:11;13.05;;;11.15;;
19731;SDS011;10017;54.350;18.532;2022-07-22T09:44:47;14.98;;;11.45;;
19731;SDS011;10017;54.350;18.532;2022-07-22T09:47:29;14.23;;;12.30;;
19731;SDS011;10017;54.350;18.532;2022-07-22T09:50:20;14.65;;;12.00;;
19731;SDS011;10017;54.350;18.532;2022-07-22T09:52:57;14.95;;;12.02;;
19731;SDS011;10017;54.350;18.532;2022-07-22T09:55:34;16.77;;;12.40;;
19731;SDS011;10017;54.350;18.532;2022-07-22T09:58:09;17.95;;;11.65;;
19731;SDS011;10017;54.350;18.532;2022-07-22T10:00:45;13.15;;;10.75;;
19731;SDS011;10017;54.350;18.532;2022-07-22T10:03:25;12.85;;;11.35;;
19731;SDS011;10017;54.350;18.532;2022-07-22T10:05:59;14.27;;;11.90;;
19731;SDS011;10017;54.350;18.532;2022-07-22T10:08:33;15.65;;;12.60;;
19731;SDS011;10017;54.350;18.532;2022-07-22T10:11:06;13.23;;;11.35;;
19731;SDS011;10017;54.350;18.532;2022-07-22T10:13:41;12.88;;;10.38;;
19731;SDS011;10017;54.350;18.532;2022-07-22T10:16:14;13.05;;;10.55;;
19731;SDS011;10017;54.350;18.532;2022-07-22T10:18:46;14.15;;;11.20;;
19731;SDS011;10017;54.350;18.532;2022-07-22T10:21:18;14.18;;;11.18;;
19731;SDS011;10017;54.350;18.532;2022-07-22T10:24:10;15.05;;;11.48;;
19731;SDS011;10017;54.350;18.532;2022-07-22T10:29:25;14.32;;;11.10;;
19731;SDS011;10017;54.350;18.532;2022-07-22T10:45:36;14.43;;;10.63;;
19731;SDS011;10017;54.350;18.532;2022-07-22T10:48:15;12.73;;;10.20;;
19731;SDS011;10017;54.350;18.532;2022-07-22T10:50:51;13.70;;;11.02;;
19731;SDS011;10017;54.350;18.532;2022-07-22T10:53:40;13.52;;;10.43;;
19731;SDS011;10017;54.350;18.532;2022-07-22T10:59:35;12.75;;;10.73;;
19731;SDS011;10017;54.350;18.532;2022-07-22T11:02:00;12.93;;;10.90;;
19731;SDS011;10017;54.350;18.532;2022-07-22T11:04:36;14.43;;;11.35;;
19731;SDS011;10017;54.350;18.532;2022-07-22T11:07:09;11.75;;;10.55;;
19731;SDS011;10017;54.350;18.532;2022-07-22T11:09:41;12.90;;;10.65;;
19731;SDS011;10017;54.350;18.532;2022-07-22T11:12:18;13.48;;;10.40;;
19731;SDS011;10017;54.350;18.532;2022-07-22T11:14:52;11.30;;;10.10;;
19731;SDS011;10017;54.350;18.532;2022-07-22T11:17:31;14.15;;;10.60;;
19731;SDS011;10017;54.350;18.532;2022-07-22T11:20:07;11.27;;;10.18;;
19731;SDS011;10017;54.350;18.532;2022-07-22T11:22:41;12.23;;;10.93;;
19731;SDS011;10017;54.350;18.532;2022-07-22T11:25:13;11.50;;;10.13;;
19731;SDS011;10017;54.350;18.532;2022-07-22T11:27:50;10.65;;;9.63;;
19731;SDS011;10017;54.350;18.532;2022-07-22T11:30:29;10.88;;;9.77;;
19731;SDS011;10017;54.350;18.532;2022-07-22T11:33:01;11.13;;;10.00;;
19731;SDS011;10017;54.350;18.532;2022-07-22T11:35:34;12.20;;;10.27;;
19731;SDS011;10017;54.350;18.532;2022-07-22T11:38:09;11.10;;;9.90;;
19731;SDS011;10017;54.350;18.532;2022-07-22T11:40:42;10.70;;;9.70;;
19731;SDS011;10017;54.350;18.532;2022-07-22T11:43:14;13.73;;;10.30;;
19731;SDS011;10017;54.350;18.532;2022-07-22T11:45:55;12.05;;;10.38;;
19731;SDS011;10017;54.350;18.532;2022-07-22T11:48:28;11.52;;;10.40;;
19731;SDS011;10017;54.350;18.532;2022-07-22T11:51:04;12.05;;;10.70;;
19731;SDS011;10017;54.350;18.532;2022-07-22T11:53:40;11.60;;;10.40;;
19731;SDS011;10017;54.350;18.532;2022-07-22T11:56:15;11.05;;;10.00;;
19731;SDS011;10017;54.350;18.532;2022-07-22T11:58:48;13.25;;;11.65;;
19731;SDS011;10017;54.350;18.532;2022-07-22T12:01:22;13.77;;;11.32;;
19731;SDS011;10017;54.350;18.532;2022-07-22T12:03:59;11.65;;;10.43;;
19731;SDS011;10017;54.350;18.532;2022-07-22T12:06:35;11.70;;;10.55;;
19731;SDS011;10017;54.350;18.532;2022-07-22T12:09:11;11.70;;;10.50;;
19731;SDS011;10017;54.350;18.532;2022-07-22T12:11:46;10.82;;;9.18;;
19731;SDS011;10017;54.350;18.532;2022-07-22T12:14:23;10.43;;;9.38;;
19731;SDS011;10017;54.350;18.532;2022-07-22T12:17:14;12.05;;;9.57;;
19731;SDS011;10017;54.350;18.532;2022-07-22T12:19:48;10.68;;;9.57;;
19731;SDS011;10017;54.350;18.532;2022-07-22T12:22:21;12.48;;;10.25;;
19731;SDS011;10017;54.350;18.532;2022-07-22T12:24:58;9.07;;;8.18;;
19731;SDS011;10017;54.350;18.532;2022-07-22T12:27:32;12.20;;;9.30;;
19731;SDS011;10017;54.350;18.532;2022-07-22T12:30:13;10.20;;;8.85;;
19731;SDS011;10017;54.350;18.532;2022-07-22T12:32:48;11.82;;;9.00;;
19731;SDS011;10017;54.350;18.532;2022-07-22T12:35:23;9.68;;;8.50;;
19731;SDS011;10017;54.350;18.532;2022-07-22T12:37:55;10.18;;;8.70;;
19731;SDS011;10017;54.350;18.532;2022-07-22T12:40:38;10.23;;;7.90;;
19731;SDS011;10017;54.350;18.532;2022-07-22T12:43:12;9.00;;;8.05;;
19731;SDS011;10017;54.350;18.532;2022-07-22T12:45:44;22.15;;;8.43;;
19731;SDS011;10017;54.350;18.532;2022-07-22T12:48:19;8.50;;;7.70;;
19731;SDS011;10017;54.350;18.532;2022-07-22T12:51:01;9.13;;;7.57;;
19731;SDS011;10017;54.350;18.532;2022-07-22T12:53:33;8.73;;;7.22;;
19731;SDS011;10017;54.350;18.532;2022-07-22T12:56:07;8.23;;;6.93;;
19731;SDS011;10017;54.350;18.532;2022-07-22T12:58:42;8.43;;;7.20;;
19731;SDS011;10017;54.350;18.532;2022-07-22T13:01:16;9.30;;;7.55;;
19731;SDS011;10017;54.350;18.532;2022-07-22T13:03:52;9.70;;;7.38;;
19731;SDS011;10017;54.350;18.532;2022-07-22T13:06:25;8.73;;;7.68;;
19731;SDS011;10017;54.350;18.532;2022-07-22T13:08:57;8.40;;;7.60;;
19731;SDS011;10017;54.350;18.532;2022-07-22T13:11:31;7.95;;;7.15;;
19731;SDS011;10017;54.350;18.532;2022-07-22T13:14:03;10.65;;;8.57;;
19731;SDS011;10017;54.350;18.532;2022-07-22T13:16:37;8.63;;;7.82;;
19731;SDS011;10017;54.350;18.532;2022-07-22T13:19:10;10.07;;;7.72;;
19731;SDS011;10017;54.350;18.532;2022-07-22T13:21:44;10.90;;;8.30;;
19731;SDS011;10017;54.350;18.532;2022-07-22T13:24:21;10.10;;;8.07;;
19731;SDS011;10017;54.350;18.532;2022-07-22T13:26:53;8.80;;;7.88;;
19731;SDS011;10017;54.350;18.532;2022-07-22T13:29:27;9.60;;;8.52;;
19731;SDS011;10017;54.350;18.532;2022-07-22T13:31:59;11.50;;;7.88;;
19731;SDS011;10017;54.350;18.532;2022-07-22T13:34:50;9.23;;;8.15;;
19731;SDS011;10017;54.350;18.532;2022-07-22T13:37:25;9.20;;;8.30;;
19731;SDS011;10017;54.350;18.532;2022-07-22T13:39:57;11.15;;;8.50;;
19731;SDS011;10017;54.350;18.532;2022-07-22T13:42:29;11.63;;;7.75;;
19731;SDS011;10017;54.350;18.532;2022-07-22T13:45:02;9.57;;;8.25;;
19731;SDS011;10017;54.350;18.532;2022-07-22T13:47:36;8.98;;;8.07;;
19731;SDS011;10017;54.350;18.532;2022-07-22T13:50:10;8.95;;;8.05;;
19731;SDS011;10017;54.350;18.532;2022-07-22T13:52:42;10.40;;;9.30;;
19731;SDS011;10017;54.350;18.532;2022-07-22T13:55:17;13.57;;;11.15;;
19731;SDS011;10017;54.350;18.532;2022-07-22T13:57:50;14.80;;;11.10;;
19731;SDS011;10017;54.350;18.532;2022-07-22T14:00:25;15.60;;;11.50;;
19731;SDS011;10017;54.350;18.532;2022-07-22T14:02:57;19.30;;;13.10;;
19731;SDS011;10017;54.350;18.532;2022-07-22T14:05:29;15.80;;;11.95;;
19731;SDS011;10017;54.350;18.532;2022-07-22T14:08:04;18.05;;;12.45;;
19731;SDS011;10017;54.350;18.532;2022-07-22T14:10:36;19.40;;;12.30;;
19731;SDS011;10017;54.350;18.532;2022-07-22T14:13:08;20.55;;;13.50;;
19731;SDS011;10017;54.350;18.532;2022-07-22T14:15:39;20.35;;;14.05;;
19731;SDS011;10017;54.350;18.532;2022-07-22T14:18:12;23.17;;;15.48;;
19731;SDS011;10017;54.350;18.532;2022-07-22T14:20:44;28.50;;;18.58;;
19731;SDS011;10017;54.350;18.532;2022-07-22T14:23:16;22.88;;;17.10;;
19731;SDS011;10017;54.350;18.532;2022-07-22T14:25:54;22.23;;;17.50;;
19731;SDS011;10017;54.350;18.532;2022-07-22T14:28:26;24.33;;;18.35;;
19731;SDS011;10017;54.350;18.532;2022-07-22T14:31:06;23.48;;;16.77;;
19731;SDS011;10017;54.350;18.532;2022-07-22T14:33:41;25.55;;;18.52;;
19731;SDS011;10017;54.350;18.532;2022-07-22T14:36:14;22.30;;;17.42;;
19731;SDS011;10017;54.350;18.532;2022-07-22T14:38:46;23.23;;;18.45;;
19731;SDS011;10017;54.350;18.532;2022-07-22T14:41:22;21.85;;;18.00;;
19731;SDS011;10017;54.350;18.532;2022-07-22T14:43:56;20.73;;;17.42;;
19731;SDS011;10017;54.350;18.532;2022-07-22T14:46:31;20.88;;;15.70;;
19731;SDS011;10017;54.350;18.532;2022-07-22T14:49:03;23.60;;;17.80;;
19731;SDS011;10017;54.350;18.532;2022-07-22T14:51:43;22.05;;;16.00;;
19731;SDS011;10017;54.350;18.532;2022-07-22T14:54:15;21.92;;;16.80;;
19731;SDS011;10017;54.350;18.532;2022-07-22T14:56:47;25.13;;;17.52;;
19731;SDS011;10017;54.350;18.532;2022-07-22T14:59:19;26.60;;;17.00;;
19731;SDS011;10017;54.350;18.532;2022-07-22T15:01:53;19.05;;;15.38;;
19731;SDS011;10017;54.350;18.532;2022-07-22T15:04:25;22.30;;;15.65;;
19731;SDS011;10017;54.350;18.532;2022-07-22T15:06:57;20.35;;;14.88;;
19731;SDS011;10017;54.350;18.532;2022-07-22T15:09:29;16.35;;;13.35;;
19731;SDS011;10017;54.350;18.532;2022-07-22T15:12:02;18.73;;;15.77;;
19731;SDS011;10017;54.350;18.532;2022-07-22T15:14:34;19.45;;;15.13;;